76660 UKLL-UKKO
Flight info
| Callsign | 76660 |
|---|---|
| Flight time | 0h 50m |
| Altitude | 29000 |
| Route | ADBAN DCT SORON DCT ROSUD DCT BUDUK |
| Aircraft | IL76/H-SDFGHIM1RTUWXY/LB1 |
Departure
| Time | 2026-04-24 19:06 |
|---|---|
| Airport | Lviv International Airport (UKLL) |
Arrival
| Time | 2026-04-24 19:57 |
|---|---|
| Airport | Ozerne Air Base (UKKO) |
| Time | Latitude | Longitude | Altitude | Speed | Heading |
|---|---|---|---|---|---|
| 2026-04-24 18:54 | 49.81621 | 23.94328 | 1071 ft | 0 kts | 41° |
| 2026-04-24 19:01 | 49.81626 | 23.94334 | 1071 ft | 1 kts | 38° |
| 2026-04-24 19:01 | 49.81647 | 23.94360 | 1071 ft | 11 kts | 38° |
| 2026-04-24 19:01 | 49.81743 | 23.94453 | 1071 ft | 16 kts | 26° |
| 2026-04-24 19:01 | 49.81791 | 23.94487 | 1071 ft | 0 kts | 23° |
| 2026-04-24 19:02 | 49.81810 | 23.94497 | 1071 ft | 8 kts | 8° |
| 2026-04-24 19:02 | 49.81840 | 23.94490 | 1071 ft | 15 kts | 336° |
| 2026-04-24 19:02 | 49.81871 | 23.94464 | 1072 ft | 23 kts | 324° |
| 2026-04-24 19:02 | 49.81918 | 23.94376 | 1073 ft | 4 kts | 295° |
| 2026-04-24 19:03 | 49.81920 | 23.94371 | 1073 ft | 0 kts | 291° |
| 2026-04-24 19:04 | 49.81920 | 23.94370 | 1073 ft | 0 kts | 291° |
| 2026-04-24 19:04 | 49.81927 | 23.94349 | 1073 ft | 2 kts | 313° |
| 2026-04-24 19:04 | 49.81967 | 23.94327 | 1074 ft | 18 kts | 0° |
| 2026-04-24 19:04 | 49.81982 | 23.94340 | 1074 ft | 1 kts | 76° |
| 2026-04-24 19:05 | 49.81941 | 23.94435 | 1072 ft | 10 kts | 152° |
| 2026-04-24 19:05 | 49.81880 | 23.94491 | 1071 ft | 20 kts | 146° |
| 2026-04-24 19:05 | 49.81676 | 23.94787 | 1069 ft | 66 kts | 136° |
| 2026-04-24 19:05 | 49.81197 | 23.95507 | 1058 ft | 122 kts | 136° |
| 2026-04-24 19:06 | 49.80497 | 23.96553 | 1054 ft | 157 kts | 135° |
| 2026-04-24 19:06 | 49.79710 | 23.97728 | 1483 ft | 151 kts | 136° |
| 2026-04-24 19:06 | 49.78944 | 23.98852 | 1775 ft | 160 kts | 137° |
| 2026-04-24 19:06 | 49.78071 | 24.00059 | 1957 ft | 179 kts | 139° |
| 2026-04-24 19:07 | 49.77042 | 24.01460 | 1963 ft | 213 kts | 138° |
| 2026-04-24 19:07 | 49.75890 | 24.03080 | 2135 ft | 234 kts | 136° |
| 2026-04-24 19:07 | 49.74688 | 24.04887 | 2307 ft | 249 kts | 130° |
| 2026-04-24 19:07 | 49.73824 | 24.07219 | 2552 ft | 256 kts | 103° |
| 2026-04-24 19:08 | 49.73763 | 24.09933 | 2726 ft | 259 kts | 78° |
| 2026-04-24 19:08 | 49.73965 | 24.12631 | 3434 ft | 245 kts | 82° |
| 2026-04-24 19:08 | 49.74097 | 24.14952 | 4171 ft | 231 kts | 81° |
| 2026-04-24 19:08 | 49.74264 | 24.17735 | 4374 ft | 247 kts | 81° |
| 2026-04-24 19:09 | 49.74418 | 24.20412 | 4516 ft | 258 kts | 82° |
| 2026-04-24 19:09 | 49.74576 | 24.23226 | 4449 ft | 272 kts | 81° |
| 2026-04-24 19:09 | 49.74743 | 24.26152 | 4665 ft | 270 kts | 82° |
| 2026-04-24 19:09 | 49.74865 | 24.29018 | 5058 ft | 266 kts | 82° |
| 2026-04-24 19:10 | 49.74977 | 24.31870 | 5142 ft | 274 kts | 83° |
| 2026-04-24 19:10 | 49.75145 | 24.34495 | 6655 ft | 214 kts | 71° |
| 2026-04-24 19:10 | 49.75394 | 24.36503 | 7309 ft | 210 kts | 73° |
| 2026-04-24 19:10 | 49.75666 | 24.38788 | 7505 ft | 226 kts | 73° |
| 2026-04-24 19:11 | 49.75976 | 24.41258 | 7672 ft | 240 kts | 72° |
| 2026-04-24 19:11 | 49.76355 | 24.43875 | 7625 ft | 258 kts | 71° |
| 2026-04-24 19:11 | 49.76805 | 24.46625 | 7621 ft | 270 kts | 69° |
| 2026-04-24 19:11 | 49.77323 | 24.49484 | 7618 ft | 277 kts | 68° |
| 2026-04-24 19:12 | 49.77879 | 24.52326 | 7611 ft | 282 kts | 69° |
| 2026-04-24 19:12 | 49.78069 | 24.55428 | 7639 ft | 290 kts | 85° |
| 2026-04-24 19:12 | 49.78098 | 24.58526 | 7608 ft | 293 kts | 85° |
| 2026-04-24 19:12 | 49.78108 | 24.61698 | 7606 ft | 295 kts | 84° |
| 2026-04-24 19:13 | 49.78119 | 24.63831 | 7608 ft | 296 kts | 85° |
| 2026-04-24 19:13 | 49.78142 | 24.68053 | 7604 ft | 297 kts | 85° |
| 2026-04-24 19:13 | 49.78154 | 24.71246 | 7599 ft | 297 kts | 89° |
| 2026-04-24 19:13 | 49.77999 | 24.74430 | 7600 ft | 297 kts | 87° |
| 2026-04-24 19:14 | 49.77976 | 24.77652 | 7523 ft | 299 kts | 87° |
| 2026-04-24 19:14 | 49.77981 | 24.80764 | 7860 ft | 287 kts | 84° |
| 2026-04-24 19:14 | 49.78032 | 24.83843 | 8213 ft | 278 kts | 83° |
| 2026-04-24 19:14 | 49.78105 | 24.86779 | 8549 ft | 272 kts | 82° |
| 2026-04-24 19:15 | 49.78195 | 24.89657 | 8889 ft | 267 kts | 82° |
| 2026-04-24 19:15 | 49.78297 | 24.92510 | 9233 ft | 264 kts | 81° |
| 2026-04-24 19:15 | 49.78402 | 24.95297 | 9573 ft | 261 kts | 81° |
| 2026-04-24 19:15 | 49.78513 | 24.98074 | 9916 ft | 258 kts | 81° |
| 2026-04-24 19:16 | 49.78738 | 25.03574 | 10601 ft | 255 kts | 80° |
| 2026-04-24 19:16 | 49.78852 | 25.06298 | 10945 ft | 253 kts | 80° |
| 2026-04-24 19:16 | 49.78965 | 25.08990 | 11286 ft | 252 kts | 79° |
| 2026-04-24 19:17 | 49.79078 | 25.11685 | 11627 ft | 251 kts | 79° |
| 2026-04-24 19:17 | 49.79190 | 25.14357 | 11967 ft | 249 kts | 79° |
| 2026-04-24 19:17 | 49.79304 | 25.17022 | 12308 ft | 248 kts | 79° |
| 2026-04-24 19:17 | 49.79415 | 25.19682 | 12649 ft | 246 kts | 78° |
| 2026-04-24 19:18 | 49.79524 | 25.22300 | 12985 ft | 245 kts | 78° |
| 2026-04-24 19:18 | 49.79635 | 25.24930 | 13323 ft | 244 kts | 78° |
| 2026-04-24 19:18 | 49.79743 | 25.27512 | 13656 ft | 242 kts | 78° |
| 2026-04-24 19:18 | 49.79848 | 25.30102 | 13993 ft | 241 kts | 78° |
| 2026-04-24 19:19 | 49.79953 | 25.32655 | 14327 ft | 240 kts | 77° |
| 2026-04-24 19:19 | 49.80058 | 25.35222 | 14666 ft | 238 kts | 77° |
| 2026-04-24 19:19 | 49.80162 | 25.37754 | 15000 ft | 237 kts | 77° |
| 2026-04-24 19:19 | 49.80220 | 25.40330 | 15335 ft | 239 kts | 82° |
| 2026-04-24 19:20 | 49.80199 | 25.42876 | 15670 ft | 237 kts | 81° |
| 2026-04-24 19:20 | 49.80188 | 25.45474 | 15626 ft | 253 kts | 82° |
| 2026-04-24 19:20 | 49.80174 | 25.48291 | 15630 ft | 264 kts | 82° |
| 2026-04-24 19:20 | 49.80157 | 25.51155 | 15626 ft | 272 kts | 82° |
| 2026-04-24 19:21 | 49.80134 | 25.54138 | 15630 ft | 278 kts | 83° |
| 2026-04-24 19:21 | 49.80111 | 25.57134 | 15623 ft | 283 kts | 83° |
| 2026-04-24 19:21 | 49.80086 | 25.60210 | 15622 ft | 287 kts | 83° |
| 2026-04-24 19:21 | 49.80060 | 25.63314 | 15621 ft | 289 kts | 83° |
| 2026-04-24 19:22 | 49.80032 | 25.66430 | 15619 ft | 291 kts | 83° |
| 2026-04-24 19:22 | 49.80006 | 25.69573 | 15616 ft | 293 kts | 83° |
| 2026-04-24 19:22 | 49.79977 | 25.72692 | 15611 ft | 293 kts | 83° |
| 2026-04-24 19:22 | 49.79948 | 25.75867 | 15612 ft | 294 kts | 83° |
| 2026-04-24 19:23 | 49.79918 | 25.78999 | 15613 ft | 294 kts | 83° |
| 2026-04-24 19:23 | 49.79887 | 25.82200 | 15612 ft | 295 kts | 83° |
| 2026-04-24 19:23 | 49.79857 | 25.85331 | 15614 ft | 295 kts | 83° |
| 2026-04-24 19:23 | 49.79825 | 25.88520 | 15614 ft | 295 kts | 83° |
| 2026-04-24 19:24 | 49.79792 | 25.91665 | 15615 ft | 295 kts | 83° |
| 2026-04-24 19:24 | 49.79756 | 25.94847 | 15790 ft | 289 kts | 83° |
| 2026-04-24 19:24 | 49.79720 | 25.97896 | 16019 ft | 282 kts | 83° |
| 2026-04-24 19:24 | 49.79685 | 26.00873 | 16244 ft | 277 kts | 83° |
| 2026-04-24 19:25 | 49.79659 | 26.03220 | 16429 ft | 274 kts | 82° |
| 2026-04-24 19:25 | 49.79659 | 26.03230 | 16408 ft | 274 kts | 82° |
| 2026-04-24 19:25 | 49.79640 | 26.04908 | 16522 ft | 272 kts | 82° |
| 2026-04-24 19:25 | 49.79607 | 26.07773 | 16753 ft | 269 kts | 82° |
| 2026-04-24 19:26 | 49.79571 | 26.10659 | 16991 ft | 266 kts | 82° |
| 2026-04-24 19:26 | 49.79536 | 26.13487 | 17226 ft | 264 kts | 82° |
| 2026-04-24 19:26 | 49.79502 | 26.16299 | 17464 ft | 261 kts | 82° |
| 2026-04-24 19:26 | 49.79467 | 26.19115 | 17708 ft | 260 kts | 82° |
| 2026-04-24 19:27 | 49.79431 | 26.21873 | 17951 ft | 258 kts | 81° |
| 2026-04-24 19:27 | 49.79396 | 26.24641 | 18194 ft | 257 kts | 81° |
| 2026-04-24 19:27 | 49.79359 | 26.27388 | 18430 ft | 256 kts | 81° |
| 2026-04-24 19:27 | 49.79322 | 26.30139 | 18674 ft | 254 kts | 81° |
| 2026-04-24 19:28 | 49.79283 | 26.32843 | 18909 ft | 253 kts | 81° |
| 2026-04-24 19:28 | 49.79247 | 26.35554 | 19150 ft | 252 kts | 81° |
| 2026-04-24 19:28 | 49.79208 | 26.38261 | 19400 ft | 251 kts | 80° |
| 2026-04-24 19:28 | 49.79168 | 26.40943 | 19643 ft | 250 kts | 80° |
| 2026-04-24 19:29 | 49.79301 | 26.46012 | 20033 ft | 239 kts | 64° |
| 2026-04-24 19:29 | 49.79653 | 26.48694 | 19477 ft | 274 kts | 72° |
| 2026-04-24 19:29 | 49.79499 | 26.51785 | 19135 ft | 309 kts | 103° |
| 2026-04-24 19:30 | 49.78355 | 26.54602 | 19354 ft | 316 kts | 133° |
| 2026-04-24 19:30 | 49.76716 | 26.56845 | 19574 ft | 310 kts | 131° |
| 2026-04-24 19:30 | 49.75399 | 26.59300 | 19889 ft | 289 kts | 103° |
| 2026-04-24 19:30 | 49.75057 | 26.62239 | 19837 ft | 277 kts | 81° |
| 2026-04-24 19:31 | 49.75030 | 26.65172 | 19735 ft | 286 kts | 82° |
| 2026-04-24 19:31 | 49.74980 | 26.68408 | 19274 ft | 314 kts | 83° |
| 2026-04-24 19:31 | 49.74920 | 26.71506 | 20686 ft | 272 kts | 81° |
| 2026-04-24 19:31 | 49.74914 | 26.74403 | 20587 ft | 298 kts | 78° |
| 2026-04-24 19:32 | 49.74992 | 26.77883 | 19992 ft | 337 kts | 81° |
| 2026-04-24 19:32 | 49.75046 | 26.81581 | 19995 ft | 358 kts | 81° |
| 2026-04-24 19:32 | 49.75101 | 26.85529 | 19985 ft | 378 kts | 82° |
| 2026-04-24 19:32 | 49.75158 | 26.89683 | 19989 ft | 396 kts | 82° |
| 2026-04-24 19:33 | 49.75216 | 26.94032 | 19981 ft | 414 kts | 82° |
| 2026-04-24 19:33 | 49.75280 | 26.98558 | 19983 ft | 430 kts | 82° |
| 2026-04-24 19:33 | 49.75341 | 27.03199 | 19988 ft | 445 kts | 82° |
| 2026-04-24 19:33 | 49.75403 | 27.08047 | 19984 ft | 459 kts | 83° |
| 2026-04-24 19:34 | 49.75468 | 27.13102 | 20109 ft | 470 kts | 83° |
| 2026-04-24 19:34 | 49.75527 | 27.18088 | 20507 ft | 472 kts | 83° |
| 2026-04-24 19:34 | 49.75588 | 27.23195 | 20944 ft | 474 kts | 82° |
| 2026-04-24 19:34 | 49.75647 | 27.28308 | 21325 ft | 477 kts | 82° |
| 2026-04-24 19:35 | 49.75704 | 27.33433 | 21660 ft | 480 kts | 82° |
| 2026-04-24 19:35 | 49.75761 | 27.38562 | 21966 ft | 482 kts | 82° |
| 2026-04-24 19:35 | 49.75814 | 27.43714 | 22301 ft | 483 kts | 82° |
| 2026-04-24 19:35 | 49.75867 | 27.48945 | 22546 ft | 486 kts | 82° |
| 2026-04-24 19:36 | 49.75918 | 27.54167 | 22776 ft | 487 kts | 82° |
| 2026-04-24 19:36 | 49.75962 | 27.59349 | 23020 ft | 488 kts | 82° |
| 2026-04-24 19:36 | 49.76008 | 27.64588 | 22999 ft | 484 kts | 83° |
| 2026-04-24 19:36 | 49.76054 | 27.69749 | 22729 ft | 481 kts | 83° |
| 2026-04-24 19:37 | 49.76092 | 27.74896 | 22474 ft | 479 kts | 83° |
| 2026-04-24 19:37 | 49.76133 | 27.80029 | 22221 ft | 478 kts | 83° |
| 2026-04-24 19:37 | 49.76146 | 27.85131 | 21963 ft | 479 kts | 85° |
| 2026-04-24 19:37 | 49.75861 | 27.90306 | 21706 ft | 480 kts | 89° |
| 2026-04-24 19:38 | 49.75582 | 27.95391 | 21454 ft | 480 kts | 89° |
| 2026-04-24 19:38 | 49.75279 | 28.00528 | 21191 ft | 480 kts | 89° |
| 2026-04-24 19:38 | 49.74976 | 28.05619 | 20964 ft | 479 kts | 89° |
| 2026-04-24 19:38 | 49.74675 | 28.10740 | 20734 ft | 478 kts | 89° |
| 2026-04-24 19:39 | 49.74370 | 28.15858 | 20562 ft | 476 kts | 89° |
| 2026-04-24 19:39 | 49.74066 | 28.20938 | 20360 ft | 475 kts | 89° |
| 2026-04-24 19:39 | 49.73765 | 28.25963 | 20213 ft | 473 kts | 89° |
| 2026-04-24 19:39 | 49.73456 | 28.31062 | 20000 ft | 473 kts | 89° |
| 2026-04-24 19:40 | 49.73150 | 28.36047 | 19866 ft | 470 kts | 89° |
| 2026-04-24 19:40 | 49.72843 | 28.41053 | 19551 ft | 462 kts | 89° |
| 2026-04-24 19:40 | 49.72541 | 28.45899 | 18872 ft | 449 kts | 88° |
| 2026-04-24 19:40 | 49.72245 | 28.50635 | 18219 ft | 437 kts | 88° |
| 2026-04-24 19:41 | 49.71958 | 28.55243 | 17576 ft | 427 kts | 88° |
| 2026-04-24 19:41 | 49.71675 | 28.59732 | 16938 ft | 417 kts | 88° |
| 2026-04-24 19:41 | 49.71398 | 28.64126 | 16290 ft | 409 kts | 88° |
| 2026-04-24 19:41 | 49.71124 | 28.68407 | 15651 ft | 401 kts | 89° |
| 2026-04-24 19:42 | 49.70853 | 28.72656 | 15000 ft | 394 kts | 89° |
| 2026-04-24 19:42 | 49.70581 | 28.76834 | 14347 ft | 387 kts | 90° |
| 2026-04-24 19:42 | 49.70398 | 28.79679 | 13894 ft | 382 kts | 90° |
| 2026-04-24 19:43 | 49.70349 | 28.80434 | 13778 ft | 381 kts | 90° |
| 2026-04-24 19:43 | 49.70082 | 28.84485 | 13058 ft | 377 kts | 90° |
| 2026-04-24 19:43 | 49.69826 | 28.88466 | 12379 ft | 371 kts | 90° |
| 2026-04-24 19:43 | 49.69568 | 28.92354 | 11765 ft | 363 kts | 91° |
| 2026-04-24 19:44 | 49.69317 | 28.96164 | 11091 ft | 357 kts | 90° |
| 2026-04-24 19:44 | 49.69066 | 28.99958 | 10425 ft | 351 kts | 91° |
| 2026-04-24 19:44 | 49.68818 | 29.03693 | 9552 ft | 350 kts | 91° |
| 2026-04-24 19:44 | 49.68560 | 29.07219 | 9736 ft | 318 kts | 91° |
| 2026-04-24 19:45 | 49.68333 | 29.10649 | 8677 ft | 329 kts | 91° |
| 2026-04-24 19:45 | 49.68098 | 29.14098 | 8063 ft | 325 kts | 91° |
| 2026-04-24 19:45 | 49.67870 | 29.17592 | 6758 ft | 341 kts | 91° |
| 2026-04-24 19:45 | 49.67627 | 29.21131 | 6559 ft | 319 kts | 92° |
| 2026-04-24 19:46 | 49.67392 | 29.24465 | 5896 ft | 317 kts | 91° |
| 2026-04-24 19:46 | 49.67307 | 29.27805 | 5507 ft | 299 kts | 79° |
| 2026-04-24 19:46 | 49.67984 | 29.30649 | 5338 ft | 268 kts | 47° |
| 2026-04-24 19:46 | 49.69373 | 29.32264 | 5007 ft | 247 kts | 18° |
| 2026-04-24 19:47 | 49.71034 | 29.32826 | 4563 ft | 239 kts | 2° |
| 2026-04-24 19:47 | 49.72653 | 29.32741 | 4127 ft | 234 kts | 346° |
| 2026-04-24 19:47 | 49.74034 | 29.31584 | 4114 ft | 210 kts | 319° |
| 2026-04-24 19:47 | 49.74938 | 29.30064 | 4453 ft | 175 kts | 313° |
| 2026-04-24 19:48 | 49.75837 | 29.28895 | 4260 ft | 164 kts | 329° |
| 2026-04-24 19:48 | 49.76792 | 29.27882 | 4345 ft | 180 kts | 325° |
| 2026-04-24 19:48 | 49.79361 | 29.25051 | 4358 ft | 275 kts | 325° |
| 2026-04-24 19:49 | 49.82894 | 29.21066 | 4752 ft | 342 kts | 324° |
| 2026-04-24 19:49 | 49.86700 | 29.16660 | 5916 ft | 320 kts | 321° |
| 2026-04-24 19:50 | 49.91945 | 29.10636 | 4187 ft | 298 kts | 325° |
| 2026-04-24 19:50 | 49.93620 | 29.08813 | 3596 ft | 296 kts | 325° |
| 2026-04-24 19:51 | 49.96695 | 29.05009 | 3124 ft | 271 kts | 322° |
| 2026-04-24 19:51 | 49.98166 | 29.03238 | 2866 ft | 261 kts | 324° |
| 2026-04-24 19:52 | 50.00769 | 28.99902 | 3120 ft | 217 kts | 320° |
| 2026-04-24 19:52 | 50.01823 | 28.98375 | 3274 ft | 198 kts | 319° |
| 2026-04-24 19:52 | 50.02764 | 28.96958 | 3306 ft | 184 kts | 318° |
| 2026-04-24 19:52 | 50.03631 | 28.95566 | 3270 ft | 175 kts | 315° |
| 2026-04-24 19:53 | 50.04423 | 28.94156 | 3093 ft | 173 kts | 316° |
| 2026-04-24 19:53 | 50.05264 | 28.92863 | 2517 ft | 196 kts | 320° |
| 2026-04-24 19:53 | 50.07297 | 28.90087 | 2603 ft | 198 kts | 318° |
| 2026-04-24 19:54 | 50.08351 | 28.88565 | 2902 ft | 217 kts | 321° |
| 2026-04-24 19:54 | 50.09514 | 28.87029 | 3026 ft | 216 kts | 322° |
| 2026-04-24 19:54 | 50.09755 | 28.86725 | 3007 ft | 210 kts | 323° |
| 2026-04-24 19:54 | 50.10124 | 28.86262 | 2753 ft | 214 kts | 324° |
| 2026-04-24 19:55 | 50.10896 | 28.85315 | 2356 ft | 207 kts | 322° |
| 2026-04-24 19:55 | 50.12204 | 28.83381 | 2005 ft | 173 kts | 316° |
| 2026-04-24 19:55 | 50.12879 | 28.82074 | 1949 ft | 145 kts | 309° |
| 2026-04-24 19:55 | 50.13464 | 28.80777 | 1811 ft | 150 kts | 307° |
| 2026-04-24 19:56 | 50.14005 | 28.79340 | 1595 ft | 159 kts | 303° |
| 2026-04-24 19:56 | 50.14524 | 28.77797 | 1108 ft | 159 kts | 297° |
| 2026-04-24 19:56 | 50.15006 | 28.76365 | 991 ft | 144 kts | 302° |
| 2026-04-24 19:56 | 50.15479 | 28.75003 | 811 ft | 134 kts | 300° |
| 2026-04-24 19:57 | 50.15874 | 28.73879 | 777 ft | 97 kts | 294° |
| 2026-04-24 19:57 | 50.16099 | 28.73224 | 777 ft | 40 kts | 295° |
| 2026-04-24 19:57 | 50.16223 | 28.72868 | 777 ft | 31 kts | 303° |
| 2026-04-24 19:57 | 50.16372 | 28.72766 | 777 ft | 17 kts | 7° |
| 2026-04-24 19:58 | 50.16467 | 28.72787 | 777 ft | 10 kts | 8° |
| 2026-04-24 19:58 | 50.16523 | 28.72805 | 777 ft | 7 kts | 22° |
| 2026-04-24 19:58 | 50.16568 | 28.72828 | 777 ft | 5 kts | 17° |
| 2026-04-24 19:58 | 50.16581 | 28.72835 | 777 ft | 4 kts | 11° |
| 2026-04-24 19:59 | 50.16696 | 28.72778 | 777 ft | 2 kts | 280° |
| 2026-04-24 19:59 | 50.16697 | 28.72771 | 777 ft | 1 kts | 281° |
| 2026-04-24 19:59 | 50.16702 | 28.72739 | 777 ft | 5 kts | 287° |
| 2026-04-24 20:00 | 50.16728 | 28.72681 | 777 ft | 8 kts | 321° |
| 2026-04-24 20:00 | 50.16744 | 28.72666 | 777 ft | 2 kts | 331° |
| 2026-04-24 20:00 | 50.16763 | 28.72650 | 777 ft | 0 kts | 331° |
| 2026-04-24 20:00 | 50.16768 | 28.72646 | 777 ft | 0 kts | 331° |